sensor_id;sensor_type;location;lat;lon;timestamp;P1;durP1;ratioP1;P2;durP2;ratioP2
15748;SDS011;7976;52.526;13.326;2023-07-20T00:01:51;7.68;;;2.90;;
15748;SDS011;7976;52.526;13.326;2023-07-20T00:04:18;8.23;;;3.03;;
15748;SDS011;7976;52.526;13.326;2023-07-20T00:06:44;7.53;;;2.80;;
15748;SDS011;7976;52.526;13.326;2023-07-20T00:09:11;12.63;;;3.20;;
15748;SDS011;7976;52.526;13.326;2023-07-20T00:11:39;6.45;;;2.55;;
15748;SDS011;7976;52.526;13.326;2023-07-20T00:14:13;8.00;;;2.78;;
15748;SDS011;7976;52.526;13.326;2023-07-20T00:16:40;9.05;;;3.33;;
15748;SDS011;7976;52.526;13.326;2023-07-20T00:19:07;8.25;;;3.00;;
15748;SDS011;7976;52.526;13.326;2023-07-20T00:21:35;8.75;;;3.40;;
15748;SDS011;7976;52.526;13.326;2023-07-20T00:24:02;9.63;;;4.22;;
15748;SDS011;7976;52.526;13.326;2023-07-20T00:26:30;9.82;;;4.25;;
15748;SDS011;7976;52.526;13.326;2023-07-20T00:28:58;8.65;;;3.60;;
15748;SDS011;7976;52.526;13.326;2023-07-20T00:31:25;9.48;;;4.00;;
15748;SDS011;7976;52.526;13.326;2023-07-20T00:33:52;9.57;;;3.67;;
15748;SDS011;7976;52.526;13.326;2023-07-20T00:36:18;9.55;;;3.58;;
15748;SDS011;7976;52.526;13.326;2023-07-20T00:38:45;8.68;;;3.47;;
15748;SDS011;7976;52.526;13.326;2023-07-20T00:41:12;9.07;;;3.40;;
15748;SDS011;7976;52.526;13.326;2023-07-20T00:43:39;12.02;;;3.55;;
15748;SDS011;7976;52.526;13.326;2023-07-20T00:46:08;9.45;;;3.72;;
15748;SDS011;7976;52.526;13.326;2023-07-20T00:48:35;10.25;;;3.88;;
15748;SDS011;7976;52.526;13.326;2023-07-20T00:51:03;9.27;;;3.60;;
15748;SDS011;7976;52.526;13.326;2023-07-20T00:53:30;9.85;;;4.15;;
15748;SDS011;7976;52.526;13.326;2023-07-20T00:55:57;9.52;;;3.72;;
15748;SDS011;7976;52.526;13.326;2023-07-20T00:58:24;9.82;;;4.05;;
15748;SDS011;7976;52.526;13.326;2023-07-20T01:00:52;9.15;;;4.07;;
15748;SDS011;7976;52.526;13.326;2023-07-20T01:03:20;8.20;;;3.40;;
15748;SDS011;7976;52.526;13.326;2023-07-20T01:05:51;8.05;;;3.40;;
15748;SDS011;7976;52.526;13.326;2023-07-20T01:08:24;9.40;;;3.70;;
15748;SDS011;7976;52.526;13.326;2023-07-20T01:11:06;8.25;;;3.72;;
15748;SDS011;7976;52.526;13.326;2023-07-20T01:13:42;8.90;;;3.80;;
15748;SDS011;7976;52.526;13.326;2023-07-20T01:16:10;8.13;;;3.92;;
15748;SDS011;7976;52.526;13.326;2023-07-20T01:18:39;9.27;;;3.97;;
15748;SDS011;7976;52.526;13.326;2023-07-20T01:21:06;10.50;;;4.00;;
15748;SDS011;7976;52.526;13.326;2023-07-20T01:23:50;10.02;;;4.47;;
15748;SDS011;7976;52.526;13.326;2023-07-20T01:30:27;11.05;;;4.28;;
15748;SDS011;7976;52.526;13.326;2023-07-20T01:33:18;10.77;;;4.40;;
15748;SDS011;7976;52.526;13.326;2023-07-20T01:35:48;10.98;;;4.13;;
15748;SDS011;7976;52.526;13.326;2023-07-20T01:38:20;8.98;;;4.00;;
15748;SDS011;7976;52.526;13.326;2023-07-20T01:40:49;8.90;;;4.00;;
15748;SDS011;7976;52.526;13.326;2023-07-20T01:43:17;9.77;;;4.20;;
15748;SDS011;7976;52.526;13.326;2023-07-20T01:45:44;9.35;;;3.65;;
15748;SDS011;7976;52.526;13.326;2023-07-20T01:48:12;9.30;;;3.72;;
15748;SDS011;7976;52.526;13.326;2023-07-20T01:50:42;8.30;;;3.65;;
15748;SDS011;7976;52.526;13.326;2023-07-20T01:53:09;8.82;;;4.00;;
15748;SDS011;7976;52.526;13.326;2023-07-20T01:55:36;11.15;;;4.35;;
15748;SDS011;7976;52.526;13.326;2023-07-20T01:58:03;8.05;;;3.72;;
15748;SDS011;7976;52.526;13.326;2023-07-20T02:00:31;10.55;;;4.50;;
15748;SDS011;7976;52.526;13.326;2023-07-20T02:02:58;8.50;;;3.95;;
15748;SDS011;7976;52.526;13.326;2023-07-20T02:05:24;9.18;;;4.13;;
15748;SDS011;7976;52.526;13.326;2023-07-20T02:07:53;9.15;;;4.13;;
15748;SDS011;7976;52.526;13.326;2023-07-20T02:10:21;10.40;;;3.90;;
15748;SDS011;7976;52.526;13.326;2023-07-20T02:12:48;8.60;;;3.97;;
15748;SDS011;7976;52.526;13.326;2023-07-20T02:15:15;10.18;;;4.50;;
15748;SDS011;7976;52.526;13.326;2023-07-20T02:17:43;12.23;;;4.20;;
15748;SDS011;7976;52.526;13.326;2023-07-20T02:20:10;8.48;;;3.80;;
15748;SDS011;7976;52.526;13.326;2023-07-20T02:22:37;8.10;;;3.75;;
15748;SDS011;7976;52.526;13.326;2023-07-20T02:25:07;7.43;;;3.53;;
15748;SDS011;7976;52.526;13.326;2023-07-20T02:27:34;9.13;;;4.18;;
15748;SDS011;7976;52.526;13.326;2023-07-20T02:30:04;9.82;;;4.65;;
15748;SDS011;7976;52.526;13.326;2023-07-20T02:32:33;12.45;;;4.47;;
15748;SDS011;7976;52.526;13.326;2023-07-20T02:35:00;9.63;;;4.47;;
15748;SDS011;7976;52.526;13.326;2023-07-20T02:37:29;9.15;;;4.45;;
15748;SDS011;7976;52.526;13.326;2023-07-20T02:39:56;10.35;;;4.85;;
15748;SDS011;7976;52.526;13.326;2023-07-20T02:42:24;9.95;;;4.70;;
15748;SDS011;7976;52.526;13.326;2023-07-20T02:44:52;9.90;;;4.63;;
15748;SDS011;7976;52.526;13.326;2023-07-20T02:47:19;10.85;;;4.50;;
15748;SDS011;7976;52.526;13.326;2023-07-20T02:49:46;10.05;;;4.18;;
15748;SDS011;7976;52.526;13.326;2023-07-20T02:52:13;9.90;;;4.50;;
15748;SDS011;7976;52.526;13.326;2023-07-20T02:54:40;9.25;;;4.43;;
15748;SDS011;7976;52.526;13.326;2023-07-20T02:57:07;10.90;;;5.07;;
15748;SDS011;7976;52.526;13.326;2023-07-20T02:59:35;11.23;;;5.03;;
15748;SDS011;7976;52.526;13.326;2023-07-20T03:02:02;11.05;;;5.15;;
15748;SDS011;7976;52.526;13.326;2023-07-20T03:04:29;11.30;;;5.15;;
15748;SDS011;7976;52.526;13.326;2023-07-20T03:06:56;12.43;;;5.88;;
15748;SDS011;7976;52.526;13.326;2023-07-20T03:09:25;10.98;;;5.88;;
15748;SDS011;7976;52.526;13.326;2023-07-20T03:11:51;13.13;;;5.68;;
15748;SDS011;7976;52.526;13.326;2023-07-20T03:14:18;12.73;;;6.85;;
15748;SDS011;7976;52.526;13.326;2023-07-20T03:16:46;11.32;;;5.50;;
15748;SDS011;7976;52.526;13.326;2023-07-20T03:19:14;10.98;;;5.57;;
15748;SDS011;7976;52.526;13.326;2023-07-20T03:21:41;11.32;;;5.70;;
15748;SDS011;7976;52.526;13.326;2023-07-20T03:24:08;11.63;;;5.57;;
15748;SDS011;7976;52.526;13.326;2023-07-20T03:26:36;14.40;;;6.70;;
15748;SDS011;7976;52.526;13.326;2023-07-20T03:29:04;11.15;;;6.20;;
15748;SDS011;7976;52.526;13.326;2023-07-20T03:31:32;11.65;;;5.47;;
15748;SDS011;7976;52.526;13.326;2023-07-20T03:34:00;11.32;;;6.15;;
15748;SDS011;7976;52.526;13.326;2023-07-20T03:36:27;13.48;;;6.22;;
15748;SDS011;7976;52.526;13.326;2023-07-20T03:38:54;12.38;;;6.25;;
15748;SDS011;7976;52.526;13.326;2023-07-20T03:41:21;11.27;;;5.50;;
15748;SDS011;7976;52.526;13.326;2023-07-20T03:43:48;12.10;;;6.20;;
15748;SDS011;7976;52.526;13.326;2023-07-20T03:46:15;13.48;;;5.63;;
15748;SDS011;7976;52.526;13.326;2023-07-20T03:48:42;11.02;;;5.75;;
15748;SDS011;7976;52.526;13.326;2023-07-20T03:51:10;13.40;;;6.22;;
15748;SDS011;7976;52.526;13.326;2023-07-20T03:53:37;11.07;;;5.60;;
15748;SDS011;7976;52.526;13.326;2023-07-20T03:56:04;13.18;;;5.53;;
15748;SDS011;7976;52.526;13.326;2023-07-20T03:58:31;11.18;;;5.70;;
15748;SDS011;7976;52.526;13.326;2023-07-20T04:00:58;11.60;;;5.45;;
15748;SDS011;7976;52.526;13.326;2023-07-20T04:03:25;10.55;;;5.50;;
15748;SDS011;7976;52.526;13.326;2023-07-20T04:05:53;10.30;;;5.10;;
15748;SDS011;7976;52.526;13.326;2023-07-20T04:08:22;10.90;;;5.18;;
15748;SDS011;7976;52.526;13.326;2023-07-20T04:10:49;11.60;;;5.18;;
15748;SDS011;7976;52.526;13.326;2023-07-20T04:13:16;10.77;;;5.32;;
15748;SDS011;7976;52.526;13.326;2023-07-20T04:15:43;11.98;;;5.35;;
15748;SDS011;7976;52.526;13.326;2023-07-20T04:18:11;11.02;;;5.32;;
15748;SDS011;7976;52.526;13.326;2023-07-20T04:20:38;11.98;;;5.80;;
15748;SDS011;7976;52.526;13.326;2023-07-20T04:23:04;9.52;;;5.03;;
15748;SDS011;7976;52.526;13.326;2023-07-20T04:25:33;11.40;;;5.45;;
15748;SDS011;7976;52.526;13.326;2023-07-20T04:28:04;10.57;;;5.75;;
15748;SDS011;7976;52.526;13.326;2023-07-20T04:30:35;10.77;;;5.07;;
15748;SDS011;7976;52.526;13.326;2023-07-20T04:33:03;10.73;;;5.45;;
15748;SDS011;7976;52.526;13.326;2023-07-20T04:35:46;14.02;;;5.97;;
15748;SDS011;7976;52.526;13.326;2023-07-20T04:38:19;10.30;;;5.75;;
15748;SDS011;7976;52.526;13.326;2023-07-20T04:41:01;13.10;;;6.03;;
15748;SDS011;7976;52.526;13.326;2023-07-20T04:43:31;11.40;;;5.93;;
15748;SDS011;7976;52.526;13.326;2023-07-20T04:45:58;12.30;;;5.45;;
15748;SDS011;7976;52.526;13.326;2023-07-20T04:48:25;13.05;;;5.97;;
15748;SDS011;7976;52.526;13.326;2023-07-20T04:50:56;11.68;;;6.07;;
15748;SDS011;7976;52.526;13.326;2023-07-20T04:53:24;10.13;;;5.28;;
15748;SDS011;7976;52.526;13.326;2023-07-20T04:55:51;13.10;;;6.20;;
15748;SDS011;7976;52.526;13.326;2023-07-20T04:58:21;12.32;;;5.18;;
15748;SDS011;7976;52.526;13.326;2023-07-20T05:00:50;10.27;;;5.38;;
15748;SDS011;7976;52.526;13.326;2023-07-20T05:03:19;11.23;;;4.93;;
15748;SDS011;7976;52.526;13.326;2023-07-20T05:05:46;9.73;;;4.93;;
15748;SDS011;7976;52.526;13.326;2023-07-20T05:08:16;11.45;;;5.22;;
15748;SDS011;7976;52.526;13.326;2023-07-20T05:10:43;10.85;;;5.32;;
15748;SDS011;7976;52.526;13.326;2023-07-20T05:13:10;10.63;;;5.20;;
15748;SDS011;7976;52.526;13.326;2023-07-20T05:15:39;12.50;;;5.47;;
15748;SDS011;7976;52.526;13.326;2023-07-20T05:18:19;12.35;;;4.78;;
15748;SDS011;7976;52.526;13.326;2023-07-20T05:20:48;10.20;;;4.95;;
15748;SDS011;7976;52.526;13.326;2023-07-20T05:23:17;10.38;;;5.03;;
15748;SDS011;7976;52.526;13.326;2023-07-20T05:25:45;10.10;;;5.15;;
15748;SDS011;7976;52.526;13.326;2023-07-20T05:28:12;12.15;;;5.15;;
15748;SDS011;7976;52.526;13.326;2023-07-20T05:30:40;11.13;;;5.25;;
15748;SDS011;7976;52.526;13.326;2023-07-20T05:33:07;11.07;;;5.55;;
15748;SDS011;7976;52.526;13.326;2023-07-20T05:35:37;11.60;;;5.50;;
15748;SDS011;7976;52.526;13.326;2023-07-20T05:38:13;11.68;;;5.10;;
15748;SDS011;7976;52.526;13.326;2023-07-20T05:40:48;10.70;;;5.43;;
15748;SDS011;7976;52.526;13.326;2023-07-20T05:43:15;11.02;;;5.68;;
15748;SDS011;7976;52.526;13.326;2023-07-20T05:45:43;11.02;;;5.68;;
15748;SDS011;7976;52.526;13.326;2023-07-20T05:48:17;12.10;;;5.43;;
15748;SDS011;7976;52.526;13.326;2023-07-20T05:50:50;12.93;;;5.07;;
15748;SDS011;7976;52.526;13.326;2023-07-20T05:53:17;14.48;;;5.68;;
15748;SDS011;7976;52.526;13.326;2023-07-20T05:55:44;13.05;;;5.30;;
15748;SDS011;7976;52.526;13.326;2023-07-20T05:58:18;12.13;;;5.43;;
15748;SDS011;7976;52.526;13.326;2023-07-20T06:00:48;11.15;;;4.88;;
15748;SDS011;7976;52.526;13.326;2023-07-20T06:03:15;12.00;;;4.68;;
15748;SDS011;7976;52.526;13.326;2023-07-20T06:05:43;9.93;;;4.68;;
15748;SDS011;7976;52.526;13.326;2023-07-20T06:08:12;11.05;;;5.55;;
15748;SDS011;7976;52.526;13.326;2023-07-20T06:10:39;11.88;;;5.05;;
15748;SDS011;7976;52.526;13.326;2023-07-20T06:13:06;11.18;;;5.07;;
15748;SDS011;7976;52.526;13.326;2023-07-20T06:15:39;10.32;;;5.47;;
15748;SDS011;7976;52.526;13.326;2023-07-20T06:18:17;10.18;;;4.70;;
15748;SDS011;7976;52.526;13.326;2023-07-20T06:20:48;9.30;;;4.38;;
15748;SDS011;7976;52.526;13.326;2023-07-20T06:23:16;9.82;;;4.28;;
15748;SDS011;7976;52.526;13.326;2023-07-20T06:25:43;14.60;;;4.80;;
15748;SDS011;7976;52.526;13.326;2023-07-20T06:28:10;14.05;;;5.10;;
15748;SDS011;7976;52.526;13.326;2023-07-20T06:30:37;9.95;;;4.20;;
15748;SDS011;7976;52.526;13.326;2023-07-20T06:33:04;9.57;;;3.90;;
15748;SDS011;7976;52.526;13.326;2023-07-20T06:35:33;8.73;;;3.60;;
15748;SDS011;7976;52.526;13.326;2023-07-20T06:38:00;13.00;;;4.32;;
15748;SDS011;7976;52.526;13.326;2023-07-20T06:40:29;9.85;;;3.80;;
15748;SDS011;7976;52.526;13.326;2023-07-20T06:42:55;8.40;;;3.38;;
15748;SDS011;7976;52.526;13.326;2023-07-20T06:45:23;7.40;;;2.92;;
15748;SDS011;7976;52.526;13.326;2023-07-20T06:47:50;9.45;;;3.50;;
15748;SDS011;7976;52.526;13.326;2023-07-20T06:50:17;9.50;;;3.15;;
15748;SDS011;7976;52.526;13.326;2023-07-20T06:52:45;10.70;;;3.30;;
15748;SDS011;7976;52.526;13.326;2023-07-20T06:55:13;9.73;;;3.17;;
15748;SDS011;7976;52.526;13.326;2023-07-20T06:57:40;9.57;;;2.95;;
15748;SDS011;7976;52.526;13.326;2023-07-20T07:00:07;6.18;;;2.25;;
15748;SDS011;7976;52.526;13.326;2023-07-20T07:02:36;6.30;;;2.38;;
15748;SDS011;7976;52.526;13.326;2023-07-20T07:05:03;8.73;;;2.60;;
15748;SDS011;7976;52.526;13.326;2023-07-20T07:07:31;7.82;;;2.53;;
15748;SDS011;7976;52.526;13.326;2023-07-20T07:09:59;8.32;;;2.40;;
15748;SDS011;7976;52.526;13.326;2023-07-20T07:12:29;5.43;;;2.03;;
15748;SDS011;7976;52.526;13.326;2023-07-20T07:14:56;8.05;;;2.38;;
15748;SDS011;7976;52.526;13.326;2023-07-20T07:17:23;5.65;;;1.70;;
15748;SDS011;7976;52.526;13.326;2023-07-20T07:19:50;6.95;;;2.05;;
15748;SDS011;7976;52.526;13.326;2023-07-20T07:22:19;4.38;;;1.73;;
15748;SDS011;7976;52.526;13.326;2023-07-20T07:24:46;4.22;;;1.45;;
15748;SDS011;7976;52.526;13.326;2023-07-20T07:27:14;4.75;;;1.60;;
15748;SDS011;7976;52.526;13.326;2023-07-20T07:29:41;5.25;;;1.67;;
15748;SDS011;7976;52.526;13.326;2023-07-20T07:32:09;5.70;;;1.80;;
15748;SDS011;7976;52.526;13.326;2023-07-20T07:34:36;5.45;;;2.10;;
15748;SDS011;7976;52.526;13.326;2023-07-20T07:37:03;5.15;;;1.65;;
15748;SDS011;7976;52.526;13.326;2023-07-20T07:39:31;5.75;;;1.83;;
15748;SDS011;7976;52.526;13.326;2023-07-20T07:41:57;6.57;;;2.05;;
15748;SDS011;7976;52.526;13.326;2023-07-20T07:44:26;9.25;;;2.92;;
15748;SDS011;7976;52.526;13.326;2023-07-20T07:46:52;4.57;;;1.90;;
15748;SDS011;7976;52.526;13.326;2023-07-20T07:49:19;5.18;;;1.50;;
15748;SDS011;7976;52.526;13.326;2023-07-20T07:51:46;4.32;;;1.65;;
15748;SDS011;7976;52.526;13.326;2023-07-20T07:54:13;5.43;;;1.50;;
15748;SDS011;7976;52.526;13.326;2023-07-20T07:56:40;2.58;;;1.17;;
15748;SDS011;7976;52.526;13.326;2023-07-20T07:59:07;3.17;;;1.25;;
15748;SDS011;7976;52.526;13.326;2023-07-20T08:01:36;4.32;;;1.30;;
15748;SDS011;7976;52.526;13.326;2023-07-20T08:04:02;3.58;;;1.30;;
15748;SDS011;7976;52.526;13.326;2023-07-20T08:06:30;1.63;;;1.00;;
15748;SDS011;7976;52.526;13.326;2023-07-20T08:08:57;3.88;;;1.50;;
15748;SDS011;7976;52.526;13.326;2023-07-20T08:11:24;6.00;;;1.38;;
15748;SDS011;7976;52.526;13.326;2023-07-20T08:13:51;5.70;;;1.60;;
15748;SDS011;7976;52.526;13.326;2023-07-20T08:16:17;3.95;;;1.30;;
15748;SDS011;7976;52.526;13.326;2023-07-20T08:18:46;4.70;;;1.27;;
15748;SDS011;7976;52.526;13.326;2023-07-20T08:21:12;3.08;;;1.20;;
15748;SDS011;7976;52.526;13.326;2023-07-20T08:23:39;4.43;;;1.55;;
15748;SDS011;7976;52.526;13.326;2023-07-20T08:26:06;2.25;;;1.10;;
15748;SDS011;7976;52.526;13.326;2023-07-20T08:28:33;3.40;;;1.20;;
15748;SDS011;7976;52.526;13.326;2023-07-20T08:31:00;5.45;;;1.27;;
15748;SDS011;7976;52.526;13.326;2023-07-20T08:33:28;3.75;;;1.20;;
15748;SDS011;7976;52.526;13.326;2023-07-20T08:35:59;2.92;;;1.13;;
15748;SDS011;7976;52.526;13.326;2023-07-20T08:38:28;3.20;;;1.10;;
15748;SDS011;7976;52.526;13.326;2023-07-20T08:40:55;3.42;;;1.23;;
15748;SDS011;7976;52.526;13.326;2023-07-20T08:43:25;3.75;;;1.20;;
15748;SDS011;7976;52.526;13.326;2023-07-20T08:45:54;3.70;;;1.10;;
15748;SDS011;7976;52.526;13.326;2023-07-20T08:48:22;4.32;;;1.42;;
15748;SDS011;7976;52.526;13.326;2023-07-20T08:50:50;6.30;;;1.30;;
15748;SDS011;7976;52.526;13.326;2023-07-20T08:53:21;3.28;;;1.05;;
15748;SDS011;7976;52.526;13.326;2023-07-20T08:55:48;5.22;;;1.00;;
15748;SDS011;7976;52.526;13.326;2023-07-20T08:58:17;2.95;;;1.10;;
15748;SDS011;7976;52.526;13.326;2023-07-20T09:00:45;3.67;;;1.00;;
15748;SDS011;7976;52.526;13.326;2023-07-20T09:03:15;2.58;;;0.90;;
15748;SDS011;7976;52.526;13.326;2023-07-20T09:05:42;2.00;;;0.98;;
15748;SDS011;7976;52.526;13.326;2023-07-20T09:08:10;7.15;;;1.55;;
15748;SDS011;7976;52.526;13.326;2023-07-20T09:10:38;4.25;;;1.13;;
15748;SDS011;7976;52.526;13.326;2023-07-20T09:13:05;6.22;;;1.50;;
15748;SDS011;7976;52.526;13.326;2023-07-20T09:15:32;4.15;;;1.25;;
15748;SDS011;7976;52.526;13.326;2023-07-20T09:18:00;3.40;;;1.17;;
15748;SDS011;7976;52.526;13.326;2023-07-20T09:20:30;3.75;;;1.08;;
15748;SDS011;7976;52.526;13.326;2023-07-20T09:22:59;5.55;;;1.20;;
15748;SDS011;7976;52.526;13.326;2023-07-20T09:25:31;4.90;;;1.33;;
15748;SDS011;7976;52.526;13.326;2023-07-20T09:28:01;3.03;;;0.93;;
15748;SDS011;7976;52.526;13.326;2023-07-20T09:30:30;4.63;;;1.20;;
15748;SDS011;7976;52.526;13.326;2023-07-20T09:32:57;5.25;;;1.25;;
15748;SDS011;7976;52.526;13.326;2023-07-20T09:35:25;4.90;;;1.17;;
15748;SDS011;7976;52.526;13.326;2023-07-20T09:37:54;4.43;;;1.42;;
15748;SDS011;7976;52.526;13.326;2023-07-20T09:40:26;5.25;;;1.20;;
15748;SDS011;7976;52.526;13.326;2023-07-20T09:42:54;4.03;;;1.20;;
15748;SDS011;7976;52.526;13.326;2023-07-20T09:45:29;3.03;;;1.05;;
15748;SDS011;7976;52.526;13.326;2023-07-20T09:48:02;5.13;;;1.40;;
15748;SDS011;7976;52.526;13.326;2023-07-20T09:50:31;2.35;;;0.90;;
15748;SDS011;7976;52.526;13.326;2023-07-20T09:52:58;3.20;;;1.20;;
15748;SDS011;7976;52.526;13.326;2023-07-20T09:55:27;5.40;;;1.67;;
15748;SDS011;7976;52.526;13.326;2023-07-20T09:57:55;3.97;;;1.58;;
15748;SDS011;7976;52.526;13.326;2023-07-20T10:00:23;4.60;;;1.23;;
15748;SDS011;7976;52.526;13.326;2023-07-20T10:02:51;2.95;;;1.20;;
15748;SDS011;7976;52.526;13.326;2023-07-20T10:05:22;4.13;;;1.20;;
15748;SDS011;7976;52.526;13.326;2023-07-20T10:07:53;8.50;;;1.60;;
15748;SDS011;7976;52.526;13.326;2023-07-20T10:10:21;5.90;;;1.50;;
15748;SDS011;7976;52.526;13.326;2023-07-20T10:12:49;7.00;;;1.80;;
15748;SDS011;7976;52.526;13.326;2023-07-20T10:15:18;5.03;;;1.55;;
15748;SDS011;7976;52.526;13.326;2023-07-20T10:18:02;7.55;;;1.90;;
15748;SDS011;7976;52.526;13.326;2023-07-20T10:20:35;7.30;;;1.98;;
15748;SDS011;7976;52.526;13.326;2023-07-20T10:23:06;7.80;;;1.80;;
15748;SDS011;7976;52.526;13.326;2023-07-20T10:25:34;6.00;;;1.70;;
15748;SDS011;7976;52.526;13.326;2023-07-20T10:28:03;4.43;;;1.30;;
15748;SDS011;7976;52.526;13.326;2023-07-20T10:30:32;5.15;;;1.40;;
15748;SDS011;7976;52.526;13.326;2023-07-20T10:33:02;4.97;;;1.50;;
15748;SDS011;7976;52.526;13.326;2023-07-20T10:35:31;3.45;;;1.25;;
15748;SDS011;7976;52.526;13.326;2023-07-20T10:38:17;4.72;;;1.35;;
15748;SDS011;7976;52.526;13.326;2023-07-20T10:40:54;4.85;;;1.52;;
15748;SDS011;7976;52.526;13.326;2023-07-20T10:43:22;6.35;;;1.70;;
15748;SDS011;7976;52.526;13.326;2023-07-20T10:45:49;4.88;;;1.52;;
15748;SDS011;7976;52.526;13.326;2023-07-20T10:48:20;6.25;;;1.38;;
15748;SDS011;7976;52.526;13.326;2023-07-20T10:53:36;4.30;;;1.67;;
15748;SDS011;7976;52.526;13.326;2023-07-20T10:56:06;4.65;;;1.70;;
15748;SDS011;7976;52.526;13.326;2023-07-20T10:58:37;3.60;;;1.30;;
15748;SDS011;7976;52.526;13.326;2023-07-20T11:01:04;6.90;;;1.60;;
15748;SDS011;7976;52.526;13.326;2023-07-20T11:03:33;4.95;;;1.30;;
15748;SDS011;7976;52.526;13.326;2023-07-20T11:09:05;3.80;;;1.27;;
15748;SDS011;7976;52.526;13.326;2023-07-20T11:11:36;4.80;;;1.40;;
15748;SDS011;7976;52.526;13.326;2023-07-20T11:14:05;5.18;;;1.30;;
15748;SDS011;7976;52.526;13.326;2023-07-20T11:16:35;3.60;;;1.50;;
15748;SDS011;7976;52.526;13.326;2023-07-20T11:19:15;5.30;;;1.65;;
15748;SDS011;7976;52.526;13.326;2023-07-20T11:21:44;4.35;;;1.40;;
15748;SDS011;7976;52.526;13.326;2023-07-20T11:24:12;3.88;;;1.35;;
15748;SDS011;7976;52.526;13.326;2023-07-20T11:26:40;3.92;;;1.20;;
15748;SDS011;7976;52.526;13.326;2023-07-20T11:29:11;2.13;;;1.00;;
15748;SDS011;7976;52.526;13.326;2023-07-20T11:31:39;9.15;;;2.00;;
15748;SDS011;7976;52.526;13.326;2023-07-20T11:34:09;6.85;;;1.52;;
15748;SDS011;7976;52.526;13.326;2023-07-20T11:36:39;3.28;;;1.30;;
15748;SDS011;7976;52.526;13.326;2023-07-20T11:39:07;5.22;;;1.45;;
15748;SDS011;7976;52.526;13.326;2023-07-20T11:41:35;3.92;;;1.40;;
15748;SDS011;7976;52.526;13.326;2023-07-20T11:44:03;4.03;;;1.25;;
15748;SDS011;7976;52.526;13.326;2023-07-20T11:46:32;2.90;;;1.20;;
15748;SDS011;7976;52.526;13.326;2023-07-20T11:49:00;4.20;;;1.30;;
15748;SDS011;7976;52.526;13.326;2023-07-20T11:51:28;5.00;;;1.40;;
15748;SDS011;7976;52.526;13.326;2023-07-20T11:53:57;4.78;;;1.55;;
15748;SDS011;7976;52.526;13.326;2023-07-20T11:56:24;3.20;;;1.10;;
15748;SDS011;7976;52.526;13.326;2023-07-20T11:58:54;3.83;;;1.13;;
15748;SDS011;7976;52.526;13.326;2023-07-20T12:01:24;3.22;;;1.00;;
15748;SDS011;7976;52.526;13.326;2023-07-20T12:03:54;1.95;;;0.90;;
15748;SDS011;7976;52.526;13.326;2023-07-20T12:06:22;5.45;;;1.38;;
15748;SDS011;7976;52.526;13.326;2023-07-20T12:08:53;2.88;;;0.90;;
15748;SDS011;7976;52.526;13.326;2023-07-20T12:11:34;3.95;;;1.33;;
15748;SDS011;7976;52.526;13.326;2023-07-20T12:14:02;4.68;;;1.30;;
15748;SDS011;7976;52.526;13.326;2023-07-20T12:16:32;2.17;;;0.80;;
15748;SDS011;7976;52.526;13.326;2023-07-20T12:19:01;3.15;;;1.10;;
15748;SDS011;7976;52.526;13.326;2023-07-20T12:21:30;4.10;;;1.20;;
15748;SDS011;7976;52.526;13.326;2023-07-20T12:24:00;6.07;;;1.27;;
15748;SDS011;7976;52.526;13.326;2023-07-20T12:26:28;3.65;;;1.10;;
15748;SDS011;7976;52.526;13.326;2023-07-20T12:28:58;3.25;;;1.15;;
15748;SDS011;7976;52.526;13.326;2023-07-20T12:31:27;5.20;;;1.35;;
15748;SDS011;7976;52.526;13.326;2023-07-20T12:33:56;8.02;;;1.70;;
15748;SDS011;7976;52.526;13.326;2023-07-20T12:36:27;4.93;;;1.30;;
15748;SDS011;7976;52.526;13.326;2023-07-20T12:38:54;5.00;;;1.30;;
15748;SDS011;7976;52.526;13.326;2023-07-20T12:41:20;2.53;;;1.02;;
15748;SDS011;7976;52.526;13.326;2023-07-20T12:43:48;2.85;;;1.08;;
15748;SDS011;7976;52.526;13.326;2023-07-20T12:46:16;4.03;;;0.90;;
15748;SDS011;7976;52.526;13.326;2023-07-20T12:48:43;2.38;;;0.98;;
15748;SDS011;7976;52.526;13.326;2023-07-20T12:51:11;2.38;;;0.88;;
15748;SDS011;7976;52.526;13.326;2023-07-20T12:53:41;4.70;;;1.10;;
15748;SDS011;7976;52.526;13.326;2023-07-20T12:56:08;4.80;;;1.30;;
15748;SDS011;7976;52.526;13.326;2023-07-20T12:58:35;5.68;;;1.48;;
15748;SDS011;7976;52.526;13.326;2023-07-20T13:01:03;3.50;;;1.20;;
15748;SDS011;7976;52.526;13.326;2023-07-20T13:03:35;3.67;;;1.20;;
15748;SDS011;7976;52.526;13.326;2023-07-20T13:06:03;7.55;;;1.60;;
15748;SDS011;7976;52.526;13.326;2023-07-20T13:08:31;4.35;;;1.20;;
15748;SDS011;7976;52.526;13.326;2023-07-20T13:11:04;5.15;;;1.80;;
15748;SDS011;7976;52.526;13.326;2023-07-20T13:13:31;4.03;;;1.38;;
15748;SDS011;7976;52.526;13.326;2023-07-20T13:15:58;6.47;;;2.30;;
15748;SDS011;7976;52.526;13.326;2023-07-20T13:18:25;7.65;;;2.35;;
15748;SDS011;7976;52.526;13.326;2023-07-20T13:20:54;5.45;;;1.67;;
15748;SDS011;7976;52.526;13.326;2023-07-20T13:23:20;3.60;;;1.23;;
15748;SDS011;7976;52.526;13.326;2023-07-20T13:25:47;1.83;;;0.82;;
15748;SDS011;7976;52.526;13.326;2023-07-20T13:28:14;3.85;;;1.35;;
15748;SDS011;7976;52.526;13.326;2023-07-20T13:30:44;3.97;;;1.35;;
15748;SDS011;7976;52.526;13.326;2023-07-20T13:33:12;4.00;;;1.08;;
15748;SDS011;7976;52.526;13.326;2023-07-20T13:35:39;2.17;;;0.82;;
15748;SDS011;7976;52.526;13.326;2023-07-20T13:38:08;6.60;;;1.48;;
15748;SDS011;7976;52.526;13.326;2023-07-20T13:40:38;3.28;;;1.05;;
15748;SDS011;7976;52.526;13.326;2023-07-20T13:43:05;6.18;;;1.67;;
15748;SDS011;7976;52.526;13.326;2023-07-20T13:45:32;4.95;;;1.50;;
15748;SDS011;7976;52.526;13.326;2023-07-20T13:47:59;4.50;;;1.40;;
15748;SDS011;7976;52.526;13.326;2023-07-20T13:50:26;3.65;;;1.10;;
15748;SDS011;7976;52.526;13.326;2023-07-20T13:52:53;2.90;;;1.10;;
15748;SDS011;7976;52.526;13.326;2023-07-20T13:55:21;3.65;;;1.10;;
15748;SDS011;7976;52.526;13.326;2023-07-20T13:57:48;1.58;;;0.80;;
15748;SDS011;7976;52.526;13.326;2023-07-20T14:00:16;3.60;;;1.10;;
15748;SDS011;7976;52.526;13.326;2023-07-20T14:02:43;4.47;;;1.00;;
15748;SDS011;7976;52.526;13.326;2023-07-20T14:05:10;3.17;;;0.90;;
15748;SDS011;7976;52.526;13.326;2023-07-20T14:07:37;2.10;;;0.93;;
15748;SDS011;7976;52.526;13.326;2023-07-20T14:10:05;3.05;;;1.10;;
15748;SDS011;7976;52.526;13.326;2023-07-20T14:12:33;2.92;;;0.98;;
15748;SDS011;7976;52.526;13.326;2023-07-20T14:15:00;2.15;;;1.00;;
15748;SDS011;7976;52.526;13.326;2023-07-20T14:17:28;3.22;;;0.90;;
15748;SDS011;7976;52.526;13.326;2023-07-20T14:19:55;5.50;;;1.08;;
15748;SDS011;7976;52.526;13.326;2023-07-20T14:22:22;3.78;;;1.05;;
15748;SDS011;7976;52.526;13.326;2023-07-20T14:24:49;3.03;;;1.00;;
15748;SDS011;7976;52.526;13.326;2023-07-20T14:27:16;1.98;;;0.95;;
15748;SDS011;7976;52.526;13.326;2023-07-20T14:29:45;7.50;;;1.25;;
15748;SDS011;7976;52.526;13.326;2023-07-20T14:32:12;2.40;;;0.82;;
15748;SDS011;7976;52.526;13.326;2023-07-20T14:34:39;3.28;;;1.00;;
15748;SDS011;7976;52.526;13.326;2023-07-20T14:37:06;4.30;;;1.17;;
15748;SDS011;7976;52.526;13.326;2023-07-20T14:39:33;3.42;;;0.98;;
15748;SDS011;7976;52.526;13.326;2023-07-20T14:42:00;3.00;;;0.80;;
15748;SDS011;7976;52.526;13.326;2023-07-20T14:44:28;2.33;;;0.93;;
15748;SDS011;7976;52.526;13.326;2023-07-20T14:46:57;2.67;;;0.90;;
15748;SDS011;7976;52.526;13.326;2023-07-20T14:49:25;3.80;;;1.30;;
15748;SDS011;7976;52.526;13.326;2023-07-20T14:51:52;3.67;;;1.15;;
15748;SDS011;7976;52.526;13.326;2023-07-20T14:54:23;3.80;;;1.48;;
15748;SDS011;7976;52.526;13.326;2023-07-20T14:56:51;3.13;;;1.30;;
15748;SDS011;7976;52.526;13.326;2023-07-20T14:59:18;3.65;;;1.45;;
15748;SDS011;7976;52.526;13.326;2023-07-20T15:01:46;3.53;;;1.00;;